createdAt,value
2022-08-11T00:03:43.717Z,100677.41
2022-08-11T00:08:50.492Z,100677.03
2022-08-11T00:13:52.276Z,100667.41
2022-08-11T00:18:56.423Z,100668.84
2022-08-11T00:24:00.997Z,100663.16
2022-08-11T00:29:10.166Z,100660.81
2022-08-11T00:34:12.790Z,100673.56
2022-08-11T00:39:16.015Z,100666.44
2022-08-11T00:45:10.273Z,100679.00
2022-08-11T00:50:42.977Z,100676.47
2022-08-11T00:56:18.382Z,100668.91
2022-08-11T01:01:27.410Z,100659.47
2022-08-11T01:06:52.886Z,100671.78
2022-08-11T01:12:09.623Z,100670.25
2022-08-11T01:17:53.265Z,100672.47
2022-08-11T01:23:18.170Z,100678.19
2022-08-11T01:28:41.306Z,100678.97
2022-08-11T01:34:23.302Z,100682.06
2022-08-11T01:39:26.310Z,100683.94
2022-08-11T01:44:39.858Z,100688.75
2022-08-11T01:50:07.893Z,100679.69
2022-08-11T01:55:29.494Z,100685.50
2022-08-11T02:00:36.049Z,100678.97
2022-08-11T02:06:02.365Z,100680.41
2022-08-11T02:11:31.102Z,100684.72
2022-08-11T02:17:02.401Z,100694.94
2022-08-11T02:22:35.529Z,100686.94
2022-08-11T02:27:45.335Z,100685.63
2022-08-11T02:33:23.157Z,100679.66
2022-08-11T02:38:49.510Z,100678.84
2022-08-11T02:44:35.589Z,100681.06
2022-08-11T02:50:02.779Z,100683.97
2022-08-11T02:55:08.998Z,100686.88
2022-08-11T03:00:17.565Z,100680.34
2022-08-11T03:05:37.627Z,100676.78
2022-08-11T03:11:21.226Z,100679.03
2022-08-11T03:17:06.167Z,100673.13
2022-08-11T03:22:13.302Z,100669.78
2022-08-11T03:27:32.918Z,100673.69
2022-08-11T03:33:09.775Z,100677.81
2022-08-11T03:38:16.386Z,100677.34
2022-08-11T03:43:39.146Z,100676.72
2022-08-11T03:49:07.153Z,100677.09
2022-08-11T03:54:28.492Z,100676.16
2022-08-11T03:59:51.670Z,100683.63
2022-08-11T04:05:38.481Z,100685.31
2022-08-11T04:10:42.477Z,100687.66
2022-08-11T04:16:11.429Z,100685.41
2022-08-11T04:21:35.505Z,100690.72
2022-08-11T04:27:07.230Z,100692.50
2022-08-11T04:32:33.097Z,100685.25
2022-08-11T04:38:08.675Z,100689.16
2022-08-11T04:44:02.050Z,100689.59
2022-08-11T04:49:44.972Z,100695.22
2022-08-11T04:55:27.487Z,100691.31
2022-08-11T05:00:57.952Z,100697.03
2022-08-11T05:06:24.667Z,100698.88
2022-08-11T05:11:50.568Z,100693.06
2022-08-11T05:17:33.663Z,100698.50
2022-08-11T05:22:55.201Z,100707.28
2022-08-11T05:28:28.549Z,100706.72
2022-08-11T05:34:03.489Z,100715.03
2022-08-11T05:39:36.203Z,100712.97
2022-08-11T05:44:57.915Z,100714.94
2022-08-11T05:50:18.488Z,100722.88
2022-08-11T05:56:02.970Z,100717.81
2022-08-11T06:01:06.263Z,100729.69
2022-08-11T06:06:10.077Z,100724.75
2022-08-11T06:11:12.580Z,100730.34
2022-08-11T06:16:21.055Z,100733.84
2022-08-11T06:21:23.038Z,100735.47
2022-08-11T06:26:25.422Z,100736.25
2022-08-11T06:31:28.641Z,100732.19
2022-08-11T06:36:47.262Z,100726.53
2022-08-11T06:41:53.579Z,100730.94
2022-08-11T06:47:00.933Z,100729.03
2022-08-11T06:52:33.988Z,100739.84
2022-08-11T06:57:48.640Z,100737.88
2022-08-11T07:03:00.682Z,100741.69
2022-08-11T07:08:49.549Z,100735.91
2022-08-11T07:14:13.098Z,100739.72
2022-08-11T07:19:38.903Z,100727.28
2022-08-11T07:25:04.782Z,100733.19
2022-08-11T07:30:09.896Z,100727.75
2022-08-11T07:35:13.669Z,100726.09
2022-08-11T07:40:26.376Z,100719.88
2022-08-11T07:45:47.056Z,100728.44
2022-08-11T07:51:07.864Z,100719.81
2022-08-11T07:56:10.099Z,100720.84
2022-08-11T08:01:41.988Z,100718.03
2022-08-11T08:07:03.089Z,100715.03
2022-08-11T08:12:24.421Z,100710.72
2022-08-11T08:17:45.289Z,100717.06
2022-08-11T08:23:08.432Z,100711.38
2022-08-11T08:28:14.039Z,100709.88
2022-08-11T08:33:27.240Z,100714.56
2022-08-11T08:38:29.241Z,100710.06
2022-08-11T08:43:32.661Z,100713.66
2022-08-11T08:48:51.261Z,100723.59
2022-08-11T08:54:01.567Z,100712.97
2022-08-11T08:59:04.561Z,100708.16
2022-08-11T09:04:12.255Z,100701.78
2022-08-11T09:09:16.851Z,100699.34
2022-08-11T09:14:51.650Z,100696.38
2022-08-11T09:20:21.181Z,100681.06
2022-08-11T09:25:45.267Z,100677.22
2022-08-11T09:30:53.581Z,100675.13
2022-08-11T09:35:55.615Z,100652.53
2022-08-11T09:40:58.053Z,100669.19
2022-08-11T09:46:00.941Z,100676.06
2022-08-11T09:51:03.034Z,100657.19
2022-08-11T09:56:33.884Z,100672.03
2022-08-11T10:01:47.329Z,100652.72
2022-08-11T10:07:05.405Z,100660.97
2022-08-11T10:12:12.058Z,100650.28
2022-08-11T10:17:15.987Z,100656.75
2022-08-11T10:22:51.501Z,100649.97
2022-08-11T10:28:28.982Z,100652.47
2022-08-11T10:33:42.855Z,100636.72
2022-08-11T10:38:52.454Z,100614.13
2022-08-11T10:44:02.403Z,100613.94
2022-08-11T10:49:05.334Z,100615.84
2022-08-11T10:54:25.340Z,100614.19
2022-08-11T10:59:30.250Z,100604.78
2022-08-11T11:04:58.265Z,100587.06
2022-08-11T11:10:04.024Z,100588.53
2022-08-11T11:15:25.385Z,100585.31
2022-08-11T11:20:40.776Z,100581.28
2022-08-11T11:26:14.369Z,100575.81
2022-08-11T11:31:51.565Z,100561.25
2022-08-11T11:36:58.436Z,100561.13
2022-08-11T11:42:04.175Z,100545.00
2022-08-11T11:47:06.755Z,100540.81
2022-08-11T11:52:13.529Z,100534.28
2022-08-11T11:57:35.279Z,100527.06
2022-08-11T12:02:37.777Z,100534.31
2022-08-11T12:08:12.444Z,100515.75
2022-08-11T12:13:36.002Z,100512.69
2022-08-11T12:18:39.727Z,100504.03
2022-08-11T12:24:04.454Z,100499.16
2022-08-11T12:29:09.506Z,100508.41
2022-08-11T12:34:13.781Z,100487.41
2022-08-11T12:40:17.080Z,100477.19
2022-08-11T12:45:24.862Z,100479.25
2022-08-11T12:50:50.062Z,100472.31
2022-08-11T12:56:12.138Z,100458.63
2022-08-11T13:01:32.700Z,100461.94
2022-08-11T13:06:34.446Z,100459.28
2022-08-11T13:11:57.644Z,100451.50
2022-08-11T13:17:19.201Z,100445.31
2022-08-11T13:22:24.286Z,100460.00
2022-08-11T13:27:26.579Z,100439.25
2022-08-11T13:32:29.611Z,100435.66
2022-08-11T13:38:19.131Z,100426.25
2022-08-11T13:42:53.880Z,100414.69
2022-08-11T13:47:57.311Z,100408.91
2022-08-11T13:52:58.892Z,100410.84
2022-08-11T13:58:09.172Z,100387.09
2022-08-11T14:03:26.074Z,100390.97
2022-08-11T14:08:49.290Z,100383.22
2022-08-11T14:13:52.306Z,100390.34
2022-08-11T14:18:57.445Z,100377.28
2022-08-11T14:24:01.471Z,100366.91
2022-08-11T14:29:08.181Z,100359.63
2022-08-11T14:34:12.441Z,100347.63
2022-08-11T14:39:18.486Z,100359.19
2022-08-11T14:44:39.589Z,100358.53
2022-08-11T14:49:56.110Z,100347.75
2022-08-11T14:55:23.496Z,100339.50
2022-08-11T15:00:25.804Z,100341.91
2022-08-11T15:05:27.905Z,100334.56
2022-08-11T15:10:29.978Z,100330.56
2022-08-11T15:16:02.549Z,100326.44
2022-08-11T15:21:26.017Z,100320.59
2022-08-11T15:27:00.590Z,100312.34
2022-08-11T15:32:20.361Z,100294.97
2022-08-11T15:37:27.842Z,100299.66
2022-08-11T15:42:49.407Z,100297.34
2022-08-11T15:48:06.007Z,100295.59
2022-08-11T15:53:25.603Z,100289.50
2022-08-11T15:59:40.578Z,100287.94
2022-08-11T16:04:24.823Z,100284.09
2022-08-11T16:09:28.400Z,100275.00
2022-08-11T16:14:59.208Z,100267.25
2022-08-11T16:20:03.096Z,100270.78
2022-08-11T16:27:02.835Z,100259.19
2022-08-11T16:30:43.790Z,100257.97
2022-08-11T16:36:05.130Z,100251.84
2022-08-11T16:41:12.314Z,100252.91
2022-08-11T16:46:37.851Z,100254.50
2022-08-11T16:51:39.336Z,100247.28
2022-08-11T16:56:48.014Z,100245.00
2022-08-11T17:01:53.823Z,100245.53
2022-08-11T17:07:23.408Z,100240.22
2022-08-11T17:12:57.809Z,100236.84
2022-08-11T17:18:02.543Z,100235.97
2022-08-11T17:23:24.123Z,100235.84
2022-08-11T17:28:26.080Z,100226.91
2022-08-11T17:33:47.878Z,100228.00
2022-08-11T17:38:50.706Z,100238.41
2022-08-11T17:44:13.562Z,100232.28
2022-08-11T17:49:16.306Z,100239.84
2022-08-11T17:54:37.481Z,100238.06
2022-08-11T17:59:53.734Z,100230.44
2022-08-11T18:04:57.526Z,100251.53
2022-08-11T18:10:19.922Z,100259.00
2022-08-11T18:15:39.771Z,100262.06
2022-08-11T18:21:10.550Z,100259.34
2022-08-11T18:26:31.364Z,100265.00
2022-08-11T18:31:53.790Z,100261.47
2022-08-11T18:37:22.882Z,100263.47
2022-08-11T18:42:46.438Z,100264.84
2022-08-11T18:48:11.614Z,100260.72
2022-08-11T18:53:33.773Z,100267.19
2022-08-11T18:58:55.812Z,100264.50
2022-08-11T19:04:19.119Z,100267.28
2022-08-11T19:09:39.693Z,100277.66
2022-08-11T19:15:01.151Z,100284.59
2022-08-11T19:20:24.522Z,100285.19
2022-08-11T19:25:45.911Z,100299.72
2022-08-11T19:31:06.116Z,100298.88
2022-08-11T19:36:27.314Z,100305.22
2022-08-11T19:41:56.675Z,100307.91
2022-08-11T19:47:19.317Z,100314.41
2022-08-11T19:52:39.797Z,100311.22
2022-08-11T19:58:01.203Z,100311.91
2022-08-11T20:03:24.342Z,100322.91
2022-08-11T20:08:45.754Z,100326.44
2022-08-11T20:14:09.954Z,100325.06
2022-08-11T20:19:54.817Z,100325.06
2022-08-11T20:25:14.662Z,100332.56
2022-08-11T20:30:35.262Z,100340.47
2022-08-11T20:35:57.676Z,100339.56
2022-08-11T20:41:20.031Z,100351.91
2022-08-11T20:46:42.066Z,100355.16
2022-08-11T20:52:06.299Z,100351.50
2022-08-11T20:57:59.159Z,100348.63
2022-08-11T21:03:10.588Z,100348.59
2022-08-11T21:08:34.107Z,100358.94
2022-08-11T21:13:59.051Z,100356.47
2022-08-11T21:20:06.585Z,100354.00
2022-08-11T21:25:08.587Z,100356.13
2022-08-11T21:30:29.012Z,100355.75
2022-08-11T21:35:51.324Z,100365.44
2022-08-11T21:41:12.789Z,100359.63
2022-08-11T21:46:33.809Z,100376.88
2022-08-11T21:51:56.168Z,100375.41
2022-08-11T21:57:17.006Z,100380.25
2022-08-11T22:02:38.238Z,100385.06
2022-08-11T22:07:59.016Z,100389.09
2022-08-11T22:13:19.088Z,100388.31
2022-08-11T22:18:40.418Z,100383.31
2022-08-11T22:24:02.052Z,100387.56
2022-08-11T22:29:38.182Z,100377.75
2022-08-11T22:35:02.763Z,100377.53
2022-08-11T22:40:23.010Z,100383.00
2022-08-11T22:45:43.220Z,100381.13
2022-08-11T22:51:03.982Z,100381.78
2022-08-11T22:56:32.983Z,100382.44
2022-08-11T23:01:55.423Z,100385.59
2022-08-11T23:07:50.404Z,100388.75
2022-08-11T23:13:01.077Z,100387.31
2022-08-11T23:18:21.936Z,100382.69
2022-08-11T23:23:42.378Z,100381.03
2022-08-11T23:29:05.836Z,100388.56
2022-08-11T23:35:02.981Z,100388.16
2022-08-11T23:40:10.709Z,100379.34
2022-08-11T23:45:31.499Z,100376.66
2022-08-11T23:50:54.166Z,100369.34
2022-08-11T23:56:14.256Z,100362.25
